Time;durP1;ratioP1;P1;durP2;ratioP2;P2;SDS_P1;SDS_P2;PMS_P1;PMS_P2;Temp;Humidity;BMP_temperature;BMP_pressure;BME280_temperature;BME280_humidity;BME280_pressure;Samples;Min_cycle;Max_cycle;Signal;HPM_P1;HPM_P2
2021/04/28 00:00:44;;;;;;;22.60;14.15;;;;;;;;;;5114907;28;20020;-55
2021/04/28 00:03:12;;;;;;;18.13;13.18;;;;;;;;;;5114828;28;20074;-55
2021/04/28 00:05:39;;;;;;;24.63;13.80;;;;;;;;;;5114948;28;20051;-55
2021/04/28 00:08:06;;;;;;;24.25;13.98;;;;;;;;;;5113866;28;20051;-55
2021/04/28 00:10:36;;;;;;;20.60;14.35;;;;;;;;;;5114769;28;20061;-55
2021/04/28 00:13:04;;;;;;;21.70;13.85;;;;;;;;;;5114568;28;20031;-55
2021/04/28 00:15:31;;;;;;;17.95;13.38;;;;;;;;;;5114548;28;20473;-56
2021/04/28 00:17:58;;;;;;;17.95;14.18;;;;;;;;;;5114595;28;20031;-55
2021/04/28 00:20:25;;;;;;;21.88;14.48;;;;;;;;;;5114579;28;20051;-55
2021/04/28 00:22:52;;;;;;;20.42;15.00;;;;;;;;;;5114353;28;20114;-55
2021/04/28 00:25:21;;;;;;;23.13;14.98;;;;;;;;;;5114441;28;20028;-55
2021/04/28 00:27:48;;;;;;;20.55;13.68;;;;;;;;;;5114472;28;20059;-55
2021/04/28 00:30:15;;;;;;;21.23;15.40;;;;;;;;;;5114388;28;20069;-55
2021/04/28 00:32:42;;;;;;;19.90;15.80;;;;;;;;;;5114287;27;20019;-55
2021/04/28 00:35:12;;;;;;;23.20;15.90;;;;;;;;;;5114294;28;20028;-55
2021/04/28 00:37:40;;;;;;;21.40;14.88;;;;;;;;;;5114266;28;20015;-55
2021/04/28 00:40:08;;;;;;;19.23;14.17;;;;;;;;;;5114132;28;20477;-55
2021/04/28 00:42:35;;;;;;;23.37;15.00;;;;;;;;;;5114149;28;20024;-55
2021/04/28 00:45:02;;;;;;;26.40;14.83;;;;;;;;;;5113960;28;20028;-55
2021/04/28 00:47:28;;;;;;;20.87;15.10;;;;;;;;;;5114061;28;20052;-55
2021/04/28 00:49:55;;;;;;;21.50;14.70;;;;;;;;;;5114021;28;20027;-55
2021/04/28 00:52:22;;;;;;;21.60;16.30;;;;;;;;;;5114017;28;20073;-55
2021/04/28 00:54:49;;;;;;;17.37;14.43;;;;;;;;;;5113366;28;20104;-55
2021/04/28 00:57:16;;;;;;;21.70;16.37;;;;;;;;;;5113709;28;20035;-55
2021/04/28 00:59:43;;;;;;;21.90;15.30;;;;;;;;;;5113599;28;20024;-55
2021/04/28 01:02:09;;;;;;;22.60;15.90;;;;;;;;;;5113585;28;20036;-55
2021/04/28 01:04:36;;;;;;;20.20;15.20;;;;;;;;;;5113338;28;20573;-55
2021/04/28 01:07:07;;;;;;;23.33;15.60;;;;;;;;;;5113576;28;20427;-55
2021/04/28 01:09:38;;;;;;;22.80;15.93;;;;;;;;;;5113630;28;20115;-55
2021/04/28 01:12:05;;;;;;;23.37;15.47;;;;;;;;;;5113533;28;20070;-55
2021/04/28 01:14:32;;;;;;;24.63;15.27;;;;;;;;;;5113551;28;20028;-56
2021/04/28 01:17:00;;;;;;;18.70;16.07;;;;;;;;;;5113370;28;20106;-55
2021/04/28 01:19:27;;;;;;;26.63;16.77;;;;;;;;;;5133449;27;20485;-55
2021/04/28 01:21:54;;;;;;;21.87;15.97;;;;;;;;;;5133922;27;20027;-56
2021/04/28 01:24:22;;;;;;;25.50;16.50;;;;;;;;;;5133869;27;20039;-55
2021/04/28 01:26:54;;;;;;;20.70;16.60;;;;;;;;;;5133823;27;20015;-55
2021/04/28 01:29:23;;;;;;;21.93;16.17;;;;;;;;;;5133723;27;20039;-56
2021/04/28 01:31:51;;;;;;;22.17;17.33;;;;;;;;;;5134057;27;20107;-56
2021/04/28 01:34:18;;;;;;;21.73;15.90;;;;;;;;;;5133892;27;20038;-56
2021/04/28 01:36:45;;;;;;;23.00;16.80;;;;;;;;;;5133958;27;20051;-56
2021/04/28 01:39:13;;;;;;;22.07;17.17;;;;;;;;;;5133946;27;20035;-56
2021/04/28 01:41:44;;;;;;;22.17;17.20;;;;;;;;;;5133731;27;20067;-55
2021/04/28 01:44:12;;;;;;;24.10;17.57;;;;;;;;;;5134012;28;20045;-55
2021/04/28 01:46:39;;;;;;;22.13;17.93;;;;;;;;;;5134020;28;20023;-55
2021/04/28 01:49:06;;;;;;;22.77;16.60;;;;;;;;;;5133612;28;20335;-55
2021/04/28 01:51:34;;;;;;;18.53;14.93;;;;;;;;;;5133665;28;20054;-55
2021/04/28 01:54:01;;;;;;;26.33;13.40;;;;;;;;;;5131922;28;20047;-56
2021/04/28 01:56:28;;;;;;;18.63;12.77;;;;;;;;;;5133651;28;20027;-55
2021/04/28 01:58:57;;;;;;;22.10;13.50;;;;;;;;;;5133775;28;20072;-55
2021/04/28 02:01:24;;;;;;;19.40;13.73;;;;;;;;;;5133521;28;20023;-56
2021/04/28 02:03:54;;;;;;;20.90;12.00;;;;;;;;;;5133490;28;20039;-57
2021/04/28 02:06:21;;;;;;;18.10;11.67;;;;;;;;;;5133428;28;20485;-56
2021/04/28 02:08:48;;;;;;;20.90;12.20;;;;;;;;;;5133496;28;20106;-55
2021/04/28 02:11:14;;;;;;;16.57;11.63;;;;;;;;;;5133469;28;20027;-55
2021/04/28 02:13:43;;;;;;;16.93;10.80;;;;;;;;;;5133434;28;20026;-55
2021/04/28 02:16:11;;;;;;;17.00;10.87;;;;;;;;;;5133366;28;20031;-55
2021/04/28 02:18:39;;;;;;;21.10;11.67;;;;;;;;;;5133539;28;20023;-55
2021/04/28 02:21:06;;;;;;;17.90;12.20;;;;;;;;;;5133517;28;20023;-55
2021/04/28 02:23:34;;;;;;;20.70;11.67;;;;;;;;;;5133224;28;20499;-55
2021/04/28 02:26:01;;;;;;;21.97;12.00;;;;;;;;;;5133195;28;20023;-55
2021/04/28 02:28:28;;;;;;;16.50;11.60;;;;;;;;;;5133286;28;20028;-55
2021/04/28 02:30:54;;;;;;;18.60;11.17;;;;;;;;;;5135406;27;20031;-55
2021/04/28 02:33:21;;;;;;;19.47;11.40;;;;;;;;;;5137129;27;20026;-55
2021/04/28 02:35:48;;;;;;;16.07;12.00;;;;;;;;;;5137052;27;20466;-55
2021/04/28 02:38:17;;;;;;;15.27;11.23;;;;;;;;;;5137269;27;20026;-55
2021/04/28 02:40:45;;;;;;;17.57;11.80;;;;;;;;;;5136995;27;20023;-55
2021/04/28 02:43:13;;;;;;;18.17;11.87;;;;;;;;;;5136907;27;20040;-55
2021/04/28 02:45:42;;;;;;;19.13;12.50;;;;;;;;;;5136909;27;20026;-55
2021/04/28 02:48:09;;;;;;;18.33;13.27;;;;;;;;;;5136852;27;20055;-55
2021/04/28 02:50:36;;;;;;;17.83;12.40;;;;;;;;;;5136826;27;20481;-55
2021/04/28 02:53:06;;;;;;;20.90;11.97;;;;;;;;;;5136677;27;20110;-55
2021/04/28 02:55:33;;;;;;;16.83;11.83;;;;;;;;;;5135567;27;20088;-55
2021/04/28 02:58:00;;;;;;;21.00;12.10;;;;;;;;;;5136684;27;20031;-55
2021/04/28 03:00:27;;;;;;;17.73;11.47;;;;;;;;;;5136801;27;20015;-55
2021/04/28 03:02:56;;;;;;;18.47;12.23;;;;;;;;;;5136673;27;20558;-55
2021/04/28 03:05:23;;;;;;;16.40;12.17;;;;;;;;;;5118044;27;20552;-55
2021/04/28 03:07:50;;;;;;;19.63;11.13;;;;;;;;;;5136663;27;20110;-55
2021/04/28 03:10:17;;;;;;;20.90;11.50;;;;;;;;;;5136468;27;20034;-55
2021/04/28 03:12:44;;;;;;;21.73;11.80;;;;;;;;;;5136569;27;20065;-55
2021/04/28 03:15:12;;;;;;;17.47;12.03;;;;;;;;;;5136256;27;20108;-55
2021/04/28 03:17:39;;;;;;;22.33;12.33;;;;;;;;;;5136341;27;20088;-55
2021/04/28 03:20:07;;;;;;;15.90;11.07;;;;;;;;;;5136383;27;20030;-55
2021/04/28 03:22:34;;;;;;;16.23;11.47;;;;;;;;;;5136202;27;20122;-55
2021/04/28 03:25:01;;;;;;;17.20;11.60;;;;;;;;;;5136024;27;20114;-55
2021/04/28 03:27:28;;;;;;;26.57;12.60;;;;;;;;;;5136163;27;20015;-55
2021/04/28 03:29:55;;;;;;;17.77;11.50;;;;;;;;;;5136167;27;20027;-55
2021/04/28 03:32:22;;;;;;;17.63;12.27;;;;;;;;;;5135982;27;20444;-55
2021/04/28 03:34:49;;;;;;;18.17;12.27;;;;;;;;;;5136160;27;20034;-55
2021/04/28 03:37:16;;;;;;;20.77;12.70;;;;;;;;;;5135904;27;20072;-55
2021/04/28 03:39:42;;;;;;;24.23;12.87;;;;;;;;;;5136181;27;20031;-55
2021/04/28 03:42:09;;;;;;;16.77;11.87;;;;;;;;;;5135780;27;20473;-57
2021/04/28 03:44:36;;;;;;;21.80;12.20;;;;;;;;;;5135773;27;20152;-57
2021/04/28 03:47:04;;;;;;;17.63;11.53;;;;;;;;;;5135810;27;20469;-57
2021/04/28 03:49:31;;;;;;;15.93;11.43;;;;;;;;;;5135783;27;20377;-57
2021/04/28 03:51:58;;;;;;;15.43;11.13;;;;;;;;;;5135589;27;20542;-57
2021/04/28 03:54:25;;;;;;;22.17;11.83;;;;;;;;;;5134195;27;20042;-57
2021/04/28 03:56:52;;;;;;;18.23;11.13;;;;;;;;;;5135581;27;20023;-57
2021/04/28 03:59:19;;;;;;;22.67;12.03;;;;;;;;;;5135509;27;20469;-57
2021/04/28 04:01:46;;;;;;;19.20;11.63;;;;;;;;;;5135539;27;20015;-57
2021/04/28 04:04:12;;;;;;;20.33;11.27;;;;;;;;;;5135435;27;20041;-57
2021/04/28 04:06:39;;;;;;;15.90;10.83;;;;;;;;;;5135357;27;20030;-55
2021/04/28 04:09:06;;;;;;;16.23;11.37;;;;;;;;;;5135488;27;20055;-55
2021/04/28 04:11:33;;;;;;;15.27;11.63;;;;;;;;;;5135295;27;20026;-55
2021/04/28 04:14:00;;;;;;;18.70;10.63;;;;;;;;;;5135182;27;20069;-55
2021/04/28 04:16:27;;;;;;;22.63;12.47;;;;;;;;;;5135364;27;20016;-55
2021/04/28 04:19:00;;;;;;;16.60;10.60;;;;;;;;;;5135285;27;20027;-55
2021/04/28 04:21:27;;;;;;;16.33;11.50;;;;;;;;;;5135067;27;20027;-55
2021/04/28 04:23:56;;;;;;;14.37;11.40;;;;;;;;;;5135063;27;20038;-55
2021/04/28 04:26:23;;;;;;;16.27;10.83;;;;;;;;;;5135017;27;20027;-55
2021/04/28 04:28:50;;;;;;;18.53;12.37;;;;;;;;;;5135133;27;20023;-55
2021/04/28 04:31:17;;;;;;;14.80;11.23;;;;;;;;;;5135131;27;20030;-55
2021/04/28 04:33:43;;;;;;;19.90;11.70;;;;;;;;;;5134728;27;20053;-55
2021/04/28 04:36:10;;;;;;;21.50;11.83;;;;;;;;;;5134751;27;20034;-55
2021/04/28 04:38:37;;;;;;;15.37;11.07;;;;;;;;;;5134739;27;20080;-54
2021/04/28 04:41:04;;;;;;;16.57;11.30;;;;;;;;;;5134681;27;20046;-54
2021/04/28 04:43:31;;;;;;;18.67;11.23;;;;;;;;;;5134857;27;20050;-54
2021/04/28 04:45:57;;;;;;;16.77;10.93;;;;;;;;;;5134743;27;20030;-54
2021/04/28 04:48:24;;;;;;;17.73;12.20;;;;;;;;;;5134585;27;20023;-55
2021/04/28 04:50:51;;;;;;;17.27;11.50;;;;;;;;;;5134980;27;20023;-55
2021/04/28 04:53:18;;;;;;;14.87;11.20;;;;;;;;;;5133863;27;20031;-54
2021/04/28 04:55:44;;;;;;;19.50;11.13;;;;;;;;;;5133171;27;20091;-55
2021/04/28 04:58:11;;;;;;;20.43;11.73;;;;;;;;;;5134568;27;20058;-54
2021/04/28 05:00:38;;;;;;;16.87;10.83;;;;;;;;;;5134389;27;20015;-55
2021/04/28 05:03:05;;;;;;;15.50;11.23;;;;;;;;;;5134412;27;20030;-54
2021/04/28 05:05:32;;;;;;;14.20;10.63;;;;;;;;;;5134205;27;20087;-54
2021/04/28 05:07:58;;;;;;;15.80;11.73;;;;;;;;;;5134280;27;20015;-54
2021/04/28 05:10:25;;;;;;;14.33;11.30;;;;;;;;;;5134099;27;20033;-55
2021/04/28 05:12:52;;;;;;;12.87;10.50;;;;;;;;;;5134199;27;20015;-55
2021/04/28 05:15:19;;;;;;;17.90;11.20;;;;;;;;;;5134025;27;20094;-55
2021/04/28 05:17:45;;;;;;;16.20;11.13;;;;;;;;;;5134146;27;20030;-54
2021/04/28 05:20:13;;;;;;;21.17;11.17;;;;;;;;;;5134072;27;20114;-54
2021/04/28 05:22:40;;;;;;;18.23;12.30;;;;;;;;;;5134020;27;20503;-55
2021/04/28 05:25:07;;;;;;;17.33;11.73;;;;;;;;;;5133856;27;20027;-55
2021/04/28 05:27:34;;;;;;;17.90;11.60;;;;;;;;;;5134011;27;20078;-54
2021/04/28 05:30:01;;;;;;;17.13;11.60;;;;;;;;;;5133901;27;20430;-55
2021/04/28 05:32:28;;;;;;;15.83;11.43;;;;;;;;;;5133909;27;20026;-55
2021/04/28 05:34:55;;;;;;;14.53;11.17;;;;;;;;;;5133746;27;20031;-55
2021/04/28 05:37:22;;;;;;;15.33;11.47;;;;;;;;;;5133971;27;20020;-54
2021/04/28 05:39:49;;;;;;;14.23;10.87;;;;;;;;;;5133750;27;20034;-55
2021/04/28 05:42:17;;;;;;;17.87;10.70;;;;;;;;;;5133758;27;20016;-54
2021/04/28 05:44:44;;;;;;;17.50;10.47;;;;;;;;;;5133957;28;20063;-54
2021/04/28 05:47:11;;;;;;;15.03;11.53;;;;;;;;;;5133679;28;20031;-54
2021/04/28 05:49:38;;;;;;;16.50;11.67;;;;;;;;;;5133813;28;20026;-54
2021/04/28 05:52:04;;;;;;;14.60;10.67;;;;;;;;;;5133650;28;20356;-54
2021/04/28 05:54:31;;;;;;;21.53;12.73;;;;;;;;;;5132368;28;20051;-54
2021/04/28 05:56:58;;;;;;;20.07;11.80;;;;;;;;;;5133731;28;20023;-55
2021/04/28 05:59:25;;;;;;;15.70;11.33;;;;;;;;;;5133620;28;20047;-54
2021/04/28 06:01:52;;;;;;;15.07;11.37;;;;;;;;;;5133733;28;20059;-54
2021/04/28 06:04:19;;;;;;;19.90;11.80;;;;;;;;;;5133601;27;20070;-54
2021/04/28 06:06:46;;;;;;;22.17;10.57;;;;;;;;;;5137399;27;20027;-54
2021/04/28 06:09:13;;;;;;;15.27;11.30;;;;;;;;;;5137646;27;20027;-54
2021/04/28 06:11:40;;;;;;;21.27;12.53;;;;;;;;;;5137894;27;20038;-55
2021/04/28 06:14:06;;;;;;;15.07;11.70;;;;;;;;;;5137528;27;20545;-54
2021/04/28 06:16:33;;;;;;;13.27;10.73;;;;;;;;;;5137529;27;20488;-54
2021/04/28 06:19:00;;;;;;;15.20;12.67;;;;;;;;;;5137545;27;20031;-54
2021/04/28 06:21:27;;;;;;;13.17;11.40;;;;;;;;;;5137538;27;20067;-56
2021/04/28 06:23:53;;;;;;;15.40;10.90;;;;;;;;;;5137755;27;20039;-54
2021/04/28 06:26:21;;;;;;;15.77;10.87;;;;;;;;;;5137539;27;20023;-55
2021/04/28 06:28:48;;;;;;;14.80;12.07;;;;;;;;;;5137346;27;20038;-54
2021/04/28 06:31:15;;;;;;;15.97;10.80;;;;;;;;;;5137281;27;20153;-54
2021/04/28 06:33:43;;;;;;;17.13;11.80;;;;;;;;;;5137168;27;20467;-54
2021/04/28 06:36:11;;;;;;;19.27;12.07;;;;;;;;;;5137178;27;20215;-54
2021/04/28 06:38:38;;;;;;;16.40;11.50;;;;;;;;;;5137166;27;20031;-54
2021/04/28 06:41:05;;;;;;;20.37;12.83;;;;;;;;;;5137195;27;20050;-54
2021/04/28 06:43:32;;;;;;;17.23;11.83;;;;;;;;;;5136943;27;20530;-54
2021/04/28 06:45:59;;;;;;;18.23;12.83;;;;;;;;;;5137098;27;20019;-54
2021/04/28 06:48:26;;;;;;;17.90;11.17;;;;;;;;;;5137092;27;20019;-54
2021/04/28 06:50:53;;;;;;;17.30;11.63;;;;;;;;;;5137043;27;20126;-55
2021/04/28 06:53:22;;;;;;;18.50;12.43;;;;;;;;;;5136781;27;20066;-54
2021/04/28 06:55:49;;;;;;;15.53;10.73;;;;;;;;;;5135585;27;20047;-55
2021/04/28 06:58:16;;;;;;;14.43;10.70;;;;;;;;;;5136697;27;20066;-54
2021/04/28 07:00:43;;;;;;;16.13;11.30;;;;;;;;;;5136653;27;20027;-54
2021/04/28 07:03:10;;;;;;;19.03;12.23;;;;;;;;;;5136708;27;20068;-54
2021/04/28 07:05:37;;;;;;;13.40;10.50;;;;;;;;;;5136641;27;20031;-54
2021/04/28 07:08:03;;;;;;;18.00;11.97;;;;;;;;;;5136750;27;20476;-54
2021/04/28 07:10:30;;;;;;;14.03;11.03;;;;;;;;;;5136449;27;20053;-54
2021/04/28 07:12:57;;;;;;;14.77;10.77;;;;;;;;;;5136575;27;20263;-54
2021/04/28 07:15:24;;;;;;;16.37;10.67;;;;;;;;;;5136547;27;20030;-54
2021/04/28 07:17:52;;;;;;;17.10;12.37;;;;;;;;;;5136351;27;20106;-54
2021/04/28 07:20:19;;;;;;;14.53;12.00;;;;;;;;;;5136399;27;20092;-54
2021/04/28 07:22:46;;;;;;;20.30;12.17;;;;;;;;;;5136686;27;20088;-54
2021/04/28 07:25:13;;;;;;;15.43;11.20;;;;;;;;;;5136095;27;20039;-54
2021/04/28 07:27:43;;;;;;;17.10;11.10;;;;;;;;;;5136163;27;20377;-54
2021/04/28 07:30:11;;;;;;;17.87;12.07;;;;;;;;;;5136581;27;20023;-54
2021/04/28 07:32:39;;;;;;;17.50;12.20;;;;;;;;;;5136079;27;20024;-54
2021/04/28 07:35:07;;;;;;;18.30;11.70;;;;;;;;;;5135934;27;20102;-54
2021/04/28 07:37:33;;;;;;;17.27;12.27;;;;;;;;;;5136086;27;20023;-54
2021/04/28 07:40:00;;;;;;;16.73;11.53;;;;;;;;;;5135936;27;20051;-54
2021/04/28 07:42:27;;;;;;;14.53;10.90;;;;;;;;;;5135909;27;20019;-54
2021/04/28 07:44:54;;;;;;;23.23;12.20;;;;;;;;;;5135693;27;20035;-54
2021/04/28 07:47:20;;;;;;;19.43;12.33;;;;;;;;;;5135977;27;20015;-54
2021/04/28 07:49:47;;;;;;;18.87;12.07;;;;;;;;;;5135835;27;20023;-54
2021/04/28 07:52:14;;;;;;;17.83;12.10;;;;;;;;;;5135768;27;20019;-54
2021/04/28 07:54:41;;;;;;;17.27;11.97;;;;;;;;;;5134211;27;20177;-55
2021/04/28 07:57:08;;;;;;;17.83;11.50;;;;;;;;;;5135751;27;20027;-54
2021/04/28 07:59:35;;;;;;;16.63;12.20;;;;;;;;;;5135780;27;20022;-54
2021/04/28 08:02:02;;;;;;;19.30;11.73;;;;;;;;;;5135452;27;20026;-54
2021/04/28 08:04:29;;;;;;;17.77;12.20;;;;;;;;;;5135260;27;20062;-54
2021/04/28 08:06:56;;;;;;;17.70;11.47;;;;;;;;;;5135541;27;20030;-54
2021/04/28 08:09:22;;;;;;;16.83;11.23;;;;;;;;;;5135285;27;20024;-54
2021/04/28 08:11:49;;;;;;;23.97;12.60;;;;;;;;;;5135517;27;20020;-54
2021/04/28 08:14:16;;;;;;;16.73;11.90;;;;;;;;;;5135372;27;20023;-54
2021/04/28 08:16:43;;;;;;;16.97;11.57;;;;;;;;;;5135188;27;20015;-54
2021/04/28 08:19:09;;;;;;;19.93;12.17;;;;;;;;;;5135407;27;20106;-54
2021/04/28 08:21:36;;;;;;;14.83;10.97;;;;;;;;;;5135259;27;20015;-54
2021/04/28 08:24:03;;;;;;;16.23;10.43;;;;;;;;;;5134932;27;20031;-56
2021/04/28 08:26:30;;;;;;;14.70;10.77;;;;;;;;;;5134935;27;20023;-56
2021/04/28 08:28:57;;;;;;;12.53;10.27;;;;;;;;;;5134136;27;20034;-56
2021/04/28 08:31:24;;;;;;;15.80;11.13;;;;;;;;;;5134859;27;20525;-56
2021/04/28 08:33:51;;;;;;;15.07;10.97;;;;;;;;;;5134804;27;20030;-56
2021/04/28 08:36:31;;;;;;;17.20;11.17;;;;;;;;;;5134787;27;20023;-56
2021/04/28 08:38:58;;;;;;;14.80;10.70;;;;;;;;;;5134601;27;20354;-56
2021/04/28 08:41:25;;;;;;;21.77;11.70;;;;;;;;;;5134726;27;20030;-56
2021/04/28 08:43:52;;;;;;;18.60;11.67;;;;;;;;;;5134765;27;20072;-56
2021/04/28 08:46:19;;;;;;;17.87;10.57;;;;;;;;;;5134751;27;20084;-56
2021/04/28 08:48:45;;;;;;;16.20;11.40;;;;;;;;;;5134751;27;20107;-56
2021/04/28 08:51:17;;;;;;;16.07;11.13;;;;;;;;;;5134490;27;20071;-56
2021/04/28 08:53:44;;;;;;;14.53;10.80;;;;;;;;;;5134594;27;20019;-54
2021/04/28 08:56:11;;;;;;;16.73;10.43;;;;;;;;;;5118759;27;20051;-54
2021/04/28 08:58:38;;;;;;;16.07;11.07;;;;;;;;;;5114055;28;20107;-54
2021/04/28 09:01:05;;;;;;;16.03;11.27;;;;;;;;;;5113832;28;20055;-54
2021/04/28 09:03:41;;;;;;;19.23;11.60;;;;;;;;;;5113715;28;20067;-54
2021/04/28 09:06:26;;;;;;;17.37;10.77;;;;;;;;;;5113840;28;20016;-54
2021/04/28 09:08:52;;;;;;;;;;;;;;;;;;5114228;28;20026;-54
2021/04/28 09:11:37;;;;;;;15.47;11.17;;;;;;;;;;5113769;28;19907;-54
2021/04/28 09:14:09;;;;;;;14.85;10.43;;;;;;;;;;5113582;28;20019;-54
2021/04/28 09:16:35;;;;;;;14.07;10.03;;;;;;;;;;5133966;27;20038;-54
2021/04/28 09:19:02;;;;;;;14.27;9.87;;;;;;;;;;5134286;27;20035;-54
2021/04/28 09:21:49;;;;;;;16.10;10.17;;;;;;;;;;5134133;27;20362;-54
2021/04/28 09:24:19;;;;;;;15.07;10.93;;;;;;;;;;5133912;27;20393;-54
2021/04/28 09:26:46;;;;;;;14.27;10.50;;;;;;;;;;5134194;27;20030;-54
2021/04/28 09:29:20;;;;;;;20.37;11.40;;;;;;;;;;5133988;27;20027;-54
2021/04/28 09:31:59;;;;;;;16.60;11.83;;;;;;;;;;5133898;27;20042;-54
2021/04/28 09:34:26;;;;;;;16.77;11.77;;;;;;;;;;5133968;27;20062;-54
2021/04/28 09:37:00;;;;;;;14.80;11.37;;;;;;;;;;5133817;27;20057;-54
2021/04/28 09:39:27;;;;;;;16.47;10.13;;;;;;;;;;5133791;27;20030;-54
2021/04/28 09:41:56;;;;;;;16.87;13.03;;;;;;;;;;5133874;27;20071;-54
2021/04/28 09:44:27;;;;;;;24.17;12.90;;;;;;;;;;5133739;28;20076;-54
2021/04/28 09:46:58;;;;;;;17.07;11.70;;;;;;;;;;5133700;28;20444;-54
2021/04/28 09:49:26;;;;;;;24.07;13.10;;;;;;;;;;5133749;28;20384;-54
2021/04/28 09:51:58;;;;;;;19.20;11.43;;;;;;;;;;5133645;28;20039;-54
2021/04/28 09:54:31;;;;;;;15.00;10.53;;;;;;;;;;5133863;28;20028;-54
2021/04/28 09:57:02;;;;;;;17.47;10.60;;;;;;;;;;5132998;28;20134;-54
2021/04/28 09:59:41;;;;;;;14.07;11.13;;;;;;;;;;5133795;28;20042;-54
2021/04/28 10:02:08;;;;;;;15.67;11.23;;;;;;;;;;5133630;28;20027;-54
2021/04/28 10:04:35;;;;;;;14.60;11.03;;;;;;;;;;5133387;28;20125;-54
2021/04/28 10:07:02;;;;;;;15.07;11.37;;;;;;;;;;5133728;28;20020;-54
2021/04/28 10:09:30;;;;;;;16.23;11.23;;;;;;;;;;5133542;28;20276;-54
2021/04/28 10:11:58;;;;;;;18.73;10.57;;;;;;;;;;5133420;28;20024;-54
2021/04/28 10:14:26;;;;;;;17.33;12.20;;;;;;;;;;5133404;28;20076;-54
2021/04/28 10:16:54;;;;;;;15.93;11.83;;;;;;;;;;5133475;28;20020;-54
2021/04/28 10:19:23;;;;;;;14.97;11.00;;;;;;;;;;5133348;28;20023;-54
2021/04/28 10:21:50;;;;;;;15.27;11.57;;;;;;;;;;5133379;28;20023;-54
2021/04/28 10:24:19;;;;;;;15.97;10.90;;;;;;;;;;5133497;28;20051;-54
2021/04/28 10:26:47;;;;;;;15.07;11.77;;;;;;;;;;5133421;28;20034;-54
2021/04/28 10:29:18;;;;;;;13.30;10.33;;;;;;;;;;5133352;28;20027;-54
2021/04/28 10:31:47;;;;;;;18.70;11.67;;;;;;;;;;5133354;28;20023;-54
2021/04/28 10:34:16;;;;;;;19.33;11.57;;;;;;;;;;5133529;28;20068;-54
2021/04/28 10:36:43;;;;;;;14.10;10.43;;;;;;;;;;5133253;28;20370;-54
2021/04/28 10:39:10;;;;;;;16.07;10.70;;;;;;;;;;5133381;28;20027;-54
2021/04/28 10:41:37;;;;;;;15.00;11.00;;;;;;;;;;5133269;28;20071;-54
2021/04/28 10:44:05;;;;;;;18.60;11.37;;;;;;;;;;5133013;28;20518;-54
2021/04/28 10:46:32;;;;;;;21.20;12.70;;;;;;;;;;5133344;28;20015;-54
2021/04/28 10:49:16;;;;;;;19.63;12.77;;;;;;;;;;5133177;28;20035;-54
2021/04/28 10:51:46;;;;;;;15.33;10.67;;;;;;;;;;5135067;27;20038;-54
2021/04/28 10:54:22;;;;;;;17.77;11.63;;;;;;;;;;5136782;27;20023;-54
2021/04/28 10:57:01;;;;;;;19.93;11.50;;;;;;;;;;5135646;27;20082;-54
2021/04/28 10:59:34;;;;;;;16.60;10.57;;;;;;;;;;5136920;27;20023;-54
2021/04/28 11:02:07;;;;;;;17.23;10.57;;;;;;;;;;5136836;27;20027;-54
2021/04/28 11:04:34;;;;;;;16.03;11.60;;;;;;;;;;5136950;27;20027;-54
2021/04/28 11:07:01;;;;;;;19.67;11.50;;;;;;;;;;5136666;27;20058;-54
2021/04/28 11:09:28;;;;;;;13.57;10.80;;;;;;;;;;5136735;27;20096;-54
2021/04/28 11:11:56;;;;;;;13.50;10.40;;;;;;;;;;5136741;27;20026;-54
2021/04/28 11:14:24;;;;;;;14.90;11.50;;;;;;;;;;5136618;27;20046;-54
2021/04/28 11:16:53;;;;;;;16.47;11.53;;;;;;;;;;5136455;27;20023;-54
2021/04/28 11:19:28;;;;;;;15.73;11.23;;;;;;;;;;5136498;27;20033;-54
2021/04/28 11:22:21;;;;;;;17.87;12.10;;;;;;;;;;5136383;27;20024;-54
2021/04/28 11:24:51;;;;;;;17.63;11.50;;;;;;;;;;5136365;27;20031;-54
2021/04/28 11:27:37;;;;;;;19.13;12.33;;;;;;;;;;5136193;27;20473;-54
2021/04/28 11:30:03;;;;;;;;;;;;;;;;;;5136680;27;20038;-54
2021/04/28 11:32:30;;;;;;;14.37;10.60;;;;;;;;;;5136455;27;19905;-54
2021/04/28 11:34:57;;;;;;;15.83;10.37;;;;;;;;;;5136018;27;20099;-54
2021/04/28 11:37:24;;;;;;;16.10;10.97;;;;;;;;;;5136032;27;20027;-54
2021/04/28 11:39:51;;;;;;;14.07;10.70;;;;;;;;;;5135971;27;20034;-54
2021/04/28 11:42:18;;;;;;;17.37;11.17;;;;;;;;;;5135990;27;20367;-54
2021/04/28 11:44:52;;;;;;;15.50;9.60;;;;;;;;;;5135730;27;20035;-54
2021/04/28 11:47:20;;;;;;;15.33;10.97;;;;;;;;;;5135859;27;20385;-54
2021/04/28 11:49:48;;;;;;;17.40;10.73;;;;;;;;;;5135744;27;20023;-54
2021/04/28 11:52:16;;;;;;;17.53;10.73;;;;;;;;;;5135885;27;20024;-54
2021/04/28 11:54:43;;;;;;;17.77;10.63;;;;;;;;;;5135629;27;20031;-54
2021/04/28 11:57:10;;;;;;;16.37;12.20;;;;;;;;;;5113713;28;20044;-53
2021/04/28 11:59:38;;;;;;;17.63;10.83;;;;;;;;;;5115020;28;20110;-54
2021/04/28 12:02:06;;;;;;;18.70;11.73;;;;;;;;;;5114970;28;20094;-54
2021/04/28 12:04:32;;;;;;;17.03;11.80;;;;;;;;;;5114810;28;20478;-54
2021/04/28 12:06:59;;;;;;;18.00;11.73;;;;;;;;;;5115080;28;20058;-54
2021/04/28 12:09:31;;;;;;;16.70;12.13;;;;;;;;;;5114859;28;20027;-54
2021/04/28 12:12:08;;;;;;;14.97;10.30;;;;;;;;;;5135190;27;20031;-54
2021/04/28 12:14:35;;;;;;;18.77;11.03;;;;;;;;;;5135175;27;20030;-54
2021/04/28 12:17:02;;;;;;;17.07;11.80;;;;;;;;;;5135295;27;20149;-54
2021/04/28 12:19:29;;;;;;;17.70;12.07;;;;;;;;;;5135330;27;20025;-54
2021/04/28 12:22:03;;;;;;;19.60;12.77;;;;;;;;;;5135321;27;20098;-54
2021/04/28 12:24:37;;;;;;;18.13;12.17;;;;;;;;;;5134942;27;20397;-54
2021/04/28 12:27:04;;;;;;;22.13;13.13;;;;;;;;;;5135209;27;20482;-54
2021/04/28 12:29:32;;;;;;;25.53;14.17;;;;;;;;;;5135090;27;20469;-54
2021/04/28 12:31:58;;;;;;;19.40;13.67;;;;;;;;;;5135084;27;20027;-54
2021/04/28 12:34:25;;;;;;;18.60;13.57;;;;;;;;;;5134799;27;20110;-54
2021/04/28 12:36:52;;;;;;;22.60;13.93;;;;;;;;;;5134863;27;20027;-54
2021/04/28 12:39:26;;;;;;;23.87;15.00;;;;;;;;;;5134958;27;20046;-54
2021/04/28 12:41:53;;;;;;;26.67;14.27;;;;;;;;;;5134774;27;20473;-54
2021/04/28 12:44:20;;;;;;;24.77;15.07;;;;;;;;;;5134610;27;20047;-54
2021/04/28 12:46:48;;;;;;;25.07;15.17;;;;;;;;;;5134670;27;20051;-54
2021/04/28 12:49:15;;;;;;;19.40;13.63;;;;;;;;;;5134754;27;20061;-54
2021/04/28 12:51:50;;;;;;;28.90;13.80;;;;;;;;;;5134543;27;20023;-54
2021/04/28 12:54:37;;;;;;;19.00;13.50;;;;;;;;;;5134383;27;20023;-56
2021/04/28 12:57:17;;;;;;;22.13;14.37;;;;;;;;;;5133065;27;20122;-56
2021/04/28 12:59:44;;;;;;;21.30;13.43;;;;;;;;;;5134617;27;20099;-56
2021/04/28 13:02:17;;;;;;;21.17;13.50;;;;;;;;;;5134505;27;20032;-56
2021/04/28 13:04:49;;;;;;;21.53;14.20;;;;;;;;;;5134211;27;20392;-56
2021/04/28 13:07:23;;;;;;;27.03;15.73;;;;;;;;;;5134321;27;20389;-56
2021/04/28 13:09:50;;;;;;;19.97;14.50;;;;;;;;;;5134362;27;20473;-56
2021/04/28 13:12:33;;;;;;;24.70;15.63;;;;;;;;;;5134252;27;20376;-56
2021/04/28 13:15:01;;;;;;;23.10;13.93;;;;;;;;;;5133806;27;20019;-56
2021/04/28 13:17:48;;;;;;;20.97;15.43;;;;;;;;;;5134258;27;20027;-56
2021/04/28 13:20:18;;;;;;;24.47;14.90;;;;;;;;;;5117038;27;20394;-56
2021/04/28 13:22:45;;;;;;;23.00;14.77;;;;;;;;;;5134189;27;20124;-56
2021/04/28 13:25:12;;;;;;;24.37;15.67;;;;;;;;;;5133947;27;20042;-57
2021/04/28 13:27:39;;;;;;;22.67;14.03;;;;;;;;;;5134152;27;20019;-57
2021/04/28 13:30:12;;;;;;;20.37;15.20;;;;;;;;;;5134197;27;20034;-56
2021/04/28 13:32:41;;;;;;;20.67;14.30;;;;;;;;;;5133871;27;20023;-56
2021/04/28 13:35:15;;;;;;;21.57;12.80;;;;;;;;;;5133903;27;20029;-57
2021/04/28 13:37:42;;;;;;;17.55;13.65;;;;;;;;;;5133880;27;20033;-56
2021/04/28 13:40:23;;;;;;;19.73;12.70;;;;;;;;;;5134091;27;20106;-57
2021/04/28 13:42:54;;;;;;;20.40;12.53;;;;;;;;;;5133724;27;20035;-56
2021/04/28 13:45:21;;;;;;;18.40;12.87;;;;;;;;;;5133719;27;20393;-55
2021/04/28 13:47:48;;;;;;;20.30;13.93;;;;;;;;;;5133787;28;20072;-55
2021/04/28 13:50:15;;;;;;;21.43;14.30;;;;;;;;;;5133731;28;20033;-55
2021/04/28 13:52:42;;;;;;;16.10;12.03;;;;;;;;;;5133647;28;20022;-55
2021/04/28 13:55:10;;;;;;;16.70;12.30;;;;;;;;;;5132284;28;20047;-55
2021/04/28 13:57:37;;;;;;;17.97;13.90;;;;;;;;;;5133889;28;20525;-55
2021/04/28 14:00:05;;;;;;;18.03;12.93;;;;;;;;;;5133625;28;20415;-55
2021/04/28 14:02:32;;;;;;;20.40;14.17;;;;;;;;;;5133690;28;20019;-55
2021/04/28 14:04:59;;;;;;;17.40;13.60;;;;;;;;;;5133433;28;20039;-55
2021/04/28 14:07:25;;;;;;;17.83;11.23;;;;;;;;;;5133952;28;20020;-56
2021/04/28 14:09:52;;;;;;;15.43;12.03;;;;;;;;;;5133687;28;20038;-57
2021/04/28 14:12:19;;;;;;;18.50;11.53;;;;;;;;;;5133681;28;20023;-57
2021/04/28 14:14:46;;;;;;;17.63;11.03;;;;;;;;;;5133564;28;20079;-57
2021/04/28 14:17:12;;;;;;;20.73;12.03;;;;;;;;;;5133462;28;20022;-57
2021/04/28 14:19:39;;;;;;;15.73;11.87;;;;;;;;;;5133517;28;20026;-57
2021/04/28 14:22:06;;;;;;;18.20;11.27;;;;;;;;;;5133372;28;20020;-57
2021/04/28 14:24:33;;;;;;;15.43;11.33;;;;;;;;;;5133269;28;20039;-57